createdAt,value
2023-01-19T00:02:18.252Z,6.38
2023-01-19T00:07:22.275Z,4.68
2023-01-19T00:12:25.124Z,3.90
2023-01-19T00:17:27.942Z,4.45
2023-01-19T00:22:32.076Z,5.38
2023-01-19T00:27:35.039Z,4.03
2023-01-19T00:32:37.856Z,4.80
2023-01-19T00:38:07.315Z,5.95
2023-01-19T00:43:10.211Z,5.32
2023-01-19T00:48:12.953Z,3.65
2023-01-19T00:53:17.055Z,4.85
2023-01-19T00:58:19.782Z,4.20
2023-01-19T01:03:28.074Z,6.32
2023-01-19T01:08:32.380Z,4.75
2023-01-19T01:13:35.093Z,4.38
2023-01-19T01:18:38.013Z,6.07
2023-01-19T01:23:42.077Z,4.07
2023-01-19T01:28:44.819Z,4.15
2023-01-19T01:33:50.576Z,4.88
2023-01-19T01:38:54.597Z,4.35
2023-01-19T01:43:59.985Z,3.83
2023-01-19T01:49:06.430Z,4.85
2023-01-19T01:54:16.781Z,3.75
2023-01-19T01:59:26.586Z,3.22
2023-01-19T02:04:31.346Z,4.32
2023-01-19T02:09:55.019Z,4.30
2023-01-19T02:15:03.639Z,3.53
2023-01-19T02:20:10.356Z,4.10
2023-01-19T02:25:14.833Z,3.80
2023-01-19T02:30:18.126Z,4.03
2023-01-19T02:35:21.606Z,6.43
2023-01-19T02:41:14.144Z,3.70
2023-01-19T02:46:40.176Z,4.20
2023-01-19T03:11:05.797Z,3.80
2023-01-19T03:16:37.311Z,3.35
2023-01-19T03:21:45.148Z,3.90
2023-01-19T03:26:52.934Z,4.18
2023-01-19T03:32:22.132Z,3.75
2023-01-19T03:37:25.414Z,5.55
2023-01-19T03:48:42.071Z,3.50
2023-01-19T03:53:57.164Z,4.70
2023-01-19T03:59:40.669Z,3.30
2023-01-19T04:04:51.567Z,3.88
2023-01-19T04:10:21.889Z,3.15
2023-01-19T04:15:58.836Z,2.25
2023-01-19T04:28:14.147Z,3.15
2023-01-19T04:33:23.507Z,4.07
2023-01-19T04:38:28.628Z,3.90
2023-01-19T04:43:31.373Z,2.78
2023-01-19T04:48:35.586Z,3.72
2023-01-19T04:53:58.217Z,2.72
2023-01-19T04:59:52.138Z,3.70
2023-01-19T05:05:02.030Z,3.03
2023-01-19T05:10:08.184Z,3.03
2023-01-19T05:15:12.204Z,2.70
2023-01-19T05:20:55.367Z,3.22
2023-01-19T05:26:06.366Z,4.30
2023-01-19T05:31:18.561Z,3.60
2023-01-19T05:42:50.097Z,3.85
2023-01-19T05:47:52.851Z,4.93
2023-01-19T05:52:55.744Z,4.18
2023-01-19T06:09:17.997Z,2.90
2023-01-19T06:20:00.244Z,3.35
2023-01-19T06:25:06.100Z,3.30
2023-01-19T06:30:13.855Z,3.30
2023-01-19T06:35:46.688Z,3.85
2023-01-19T06:40:54.252Z,4.05
2023-01-19T06:46:02.979Z,3.35
2023-01-19T06:51:06.973Z,5.47
2023-01-19T06:56:44.600Z,4.03
2023-01-19T07:02:32.860Z,2.90
2023-01-19T07:07:39.717Z,3.60
2023-01-19T07:12:50.048Z,3.55
2023-01-19T07:17:53.074Z,3.58
2023-01-19T07:23:23.524Z,2.72
2023-01-19T07:33:51.744Z,2.90
2023-01-19T07:39:33.015Z,3.60
2023-01-19T07:45:01.302Z,3.28
2023-01-19T07:50:31.969Z,2.47
2023-01-19T07:55:53.453Z,3.90
2023-01-19T08:01:20.099Z,3.30
2023-01-19T08:06:50.028Z,3.22
2023-01-19T08:12:13.657Z,2.75
2023-01-19T08:17:23.876Z,2.90
2023-01-19T08:23:07.607Z,3.33
2023-01-19T08:28:27.889Z,2.80
2023-01-19T08:33:49.316Z,2.88
2023-01-19T08:44:34.335Z,3.45
2023-01-19T08:49:37.013Z,2.60
2023-01-19T08:54:39.923Z,2.38
2023-01-19T09:00:38.609Z,1.90
2023-01-19T09:06:34.129Z,2.40
2023-01-19T09:11:36.913Z,2.47
2023-01-19T09:16:39.690Z,3.00
2023-01-19T09:21:44.959Z,2.40
2023-01-19T09:27:06.943Z,2.25
2023-01-19T09:33:11.020Z,2.88
2023-01-19T09:38:42.327Z,2.33
2023-01-19T09:43:54.689Z,5.50
2023-01-19T09:48:58.454Z,2.95
2023-01-19T09:54:39.198Z,3.13
2023-01-19T09:59:49.325Z,3.30
2023-01-19T10:05:02.524Z,3.10
2023-01-19T10:10:30.963Z,4.15
2023-01-19T10:15:53.547Z,4.55
2023-01-19T10:21:05.790Z,5.32
2023-01-19T10:26:13.276Z,5.85
2023-01-19T10:31:21.060Z,5.60
2023-01-19T10:36:28.738Z,4.45
2023-01-19T10:41:40.736Z,4.93
2023-01-19T10:46:46.500Z,4.55
2023-01-19T10:57:37.145Z,5.82
2023-01-19T11:02:51.107Z,5.20
2023-01-19T11:08:03.544Z,8.07
2023-01-19T11:13:12.557Z,4.32
2023-01-19T11:18:25.269Z,5.22
2023-01-19T11:23:29.652Z,6.13
2023-01-19T11:28:34.653Z,4.95
2023-01-19T11:33:43.280Z,5.90
2023-01-19T11:38:48.988Z,7.80
2023-01-19T11:43:54.008Z,4.90
2023-01-19T11:49:02.206Z,4.93
2023-01-19T11:54:16.771Z,6.97
2023-01-19T11:59:19.916Z,5.63
2023-01-19T12:04:27.541Z,4.85
2023-01-19T12:09:34.104Z,4.97
2023-01-19T12:14:41.250Z,6.80
2023-01-19T12:20:01.541Z,10.40
2023-01-19T12:25:09.163Z,6.15
2023-01-19T12:30:20.744Z,4.80
2023-01-19T12:35:57.287Z,7.35
2023-01-19T12:41:26.460Z,5.00
2023-01-19T12:46:33.413Z,6.38
2023-01-19T12:51:47.023Z,6.45
2023-01-19T12:57:15.050Z,5.10
2023-01-19T13:02:45.682Z,5.10
2023-01-19T13:08:17.165Z,4.88
2023-01-19T13:13:22.634Z,5.25
2023-01-19T13:18:27.365Z,5.32
2023-01-19T13:23:55.626Z,4.47
2023-01-19T13:28:59.767Z,4.10
2023-01-19T13:34:03.375Z,4.97
2023-01-19T13:39:09.180Z,7.70
2023-01-19T13:44:15.747Z,4.50
2023-01-19T13:49:21.140Z,6.18
2023-01-19T13:54:25.970Z,4.97
2023-01-19T13:59:28.737Z,6.30
2023-01-19T14:04:33.317Z,4.57
2023-01-19T14:09:37.372Z,4.47
2023-01-19T14:14:44.432Z,6.88
2023-01-19T14:19:50.556Z,5.28
2023-01-19T14:24:54.719Z,6.57
2023-01-19T14:30:16.142Z,5.32
2023-01-19T14:35:25.552Z,4.47
2023-01-19T14:40:30.812Z,6.55
2023-01-19T14:45:36.389Z,5.13
2023-01-19T14:50:41.564Z,4.72
2023-01-19T14:55:49.984Z,5.15
2023-01-19T15:01:05.000Z,5.35
2023-01-19T15:06:07.885Z,6.07
2023-01-19T15:11:13.845Z,4.90
2023-01-19T15:16:16.975Z,4.40
2023-01-19T15:21:23.150Z,5.07
2023-01-19T15:26:27.834Z,5.10
2023-01-19T15:31:30.818Z,4.22
2023-01-19T15:36:33.565Z,6.47
2023-01-19T15:41:39.856Z,4.70
2023-01-19T15:46:42.606Z,5.35
2023-01-19T15:51:45.573Z,3.83
2023-01-19T15:56:49.793Z,5.68
2023-01-19T16:01:52.883Z,4.40
2023-01-19T16:06:55.837Z,4.97
2023-01-19T16:12:00.129Z,3.78
2023-01-19T16:17:03.009Z,4.43
2023-01-19T16:22:05.916Z,5.43
2023-01-19T16:27:10.086Z,4.03
2023-01-19T16:32:12.857Z,4.32
2023-01-19T16:37:15.671Z,3.83
2023-01-19T16:42:19.968Z,3.85
2023-01-19T16:47:22.781Z,4.47
2023-01-19T16:52:25.492Z,3.97
2023-01-19T16:57:29.925Z,4.78
2023-01-19T17:02:32.759Z,5.20
2023-01-19T17:07:35.526Z,4.25
2023-01-19T17:12:39.606Z,3.90
2023-01-19T17:17:42.330Z,4.97
2023-01-19T17:22:45.106Z,3.90
2023-01-19T17:27:49.203Z,5.03
2023-01-19T17:32:51.905Z,4.00
2023-01-19T17:37:55.951Z,4.25
2023-01-19T17:43:00.012Z,3.92
2023-01-19T17:48:02.964Z,4.45
2023-01-19T17:53:24.326Z,5.15
2023-01-19T17:58:30.833Z,3.95
2023-01-19T18:03:33.578Z,5.20
2023-01-19T18:08:39.287Z,4.25
2023-01-19T18:13:45.611Z,4.25
2023-01-19T18:18:49.588Z,3.28
2023-01-19T18:23:52.622Z,5.30
2023-01-19T18:28:57.366Z,4.35
2023-01-19T18:34:00.277Z,4.88
2023-01-19T18:39:03.173Z,4.78
2023-01-19T18:44:07.343Z,3.42
2023-01-19T18:49:10.454Z,5.97
2023-01-19T18:54:13.204Z,4.25
2023-01-19T18:59:17.302Z,4.63
2023-01-19T19:04:20.149Z,6.28
2023-01-19T19:09:22.891Z,4.30
2023-01-19T19:14:27.072Z,3.92
2023-01-19T19:19:29.795Z,5.00
2023-01-19T19:24:32.678Z,4.80
2023-01-19T19:29:36.797Z,4.72
2023-01-19T19:34:39.635Z,5.53
2023-01-19T19:40:08.417Z,5.55
2023-01-19T19:45:14.798Z,4.63
2023-01-19T19:50:18.129Z,5.40
2023-01-19T19:55:20.927Z,5.50
2023-01-19T20:00:25.066Z,8.00
2023-01-19T20:05:27.825Z,7.78
2023-01-19T20:10:32.010Z,6.53
2023-01-19T20:15:38.763Z,7.22
2023-01-19T20:20:41.567Z,7.28
2023-01-19T20:25:44.297Z,8.90
2023-01-19T20:30:48.378Z,9.57
2023-01-19T20:35:52.041Z,10.82
2023-01-19T20:40:54.802Z,13.00
2023-01-19T20:45:59.668Z,17.83
2023-01-19T20:51:03.344Z,21.60
2023-01-19T20:56:06.482Z,21.27
2023-01-19T21:01:15.736Z,24.67
2023-01-19T21:06:19.419Z,24.55
2023-01-19T21:11:23.952Z,24.75
2023-01-19T21:16:29.484Z,24.23
2023-01-19T21:21:32.382Z,23.35
2023-01-19T21:26:35.988Z,23.75
2023-01-19T21:31:40.107Z,21.73
2023-01-19T21:36:44.578Z,22.15
2023-01-19T21:41:47.319Z,19.35
2023-01-19T21:46:51.484Z,20.38
2023-01-19T21:51:55.208Z,18.75
2023-01-19T21:56:58.021Z,17.23
2023-01-19T22:02:02.287Z,17.33
2023-01-19T22:07:05.042Z,16.52
2023-01-19T22:12:09.860Z,18.40
2023-01-19T22:17:14.022Z,18.35
2023-01-19T22:22:16.789Z,15.43
2023-01-19T22:27:19.457Z,15.32
2023-01-19T22:32:23.524Z,15.00
2023-01-19T22:37:26.246Z,16.45
2023-01-19T22:42:28.946Z,16.33
2023-01-19T22:47:33.045Z,13.73
2023-01-19T22:52:35.737Z,13.57
2023-01-19T22:57:39.535Z,13.27
2023-01-19T23:02:43.812Z,11.68
2023-01-19T23:07:46.672Z,12.43
2023-01-19T23:12:49.539Z,12.60
2023-01-19T23:17:53.787Z,11.85
2023-01-19T23:22:56.515Z,11.43
2023-01-19T23:27:59.212Z,11.50
2023-01-19T23:33:03.396Z,12.02
2023-01-19T23:38:06.066Z,12.98
2023-01-19T23:43:08.793Z,11.43
2023-01-19T23:48:12.885Z,11.90
2023-01-19T23:53:15.612Z,12.55
2023-01-19T23:58:18.406Z,11.73
